Time;durP1;ratioP1;P1;durP2;ratioP2;P2;SDS_P1;SDS_P2;PMS_P1;PMS_P2;Temp;Humidity;BMP_temperature;BMP_pressure;BME280_temperature;BME280_humidity;BME280_pressure;Samples;Min_cycle;Max_cycle;Signal;HPM_P1;HPM_P2
2022/11/06 00:01:41;;;;;;;31.80;4.72;;;0.90;99.90;;;;;;8321322;28;20025;-83
2022/11/06 00:10:01;;;;;;;24.00;5.00;;;0.60;99.90;;;;;;8329763;28;20033;-83
2022/11/06 00:14:03;;;;;;;9.75;3.42;;;0.50;99.90;;;;;;8327147;28;20017;-83
2022/11/06 00:23:30;;;;;;;9.48;3.05;;;1.30;99.90;;;;;;8287660;28;20149;-83
2022/11/06 00:27:30;;;;;;;6.87;4.00;;;1.70;99.90;;;;;;8317771;28;20117;-83
2022/11/06 00:31:34;;;;;;;4.80;3.40;;;0.90;99.90;;;;;;8295911;28;20273;-83
2022/11/06 00:35:37;;;;;;;10.32;3.67;;;0.60;99.90;;;;;;8295980;28;20029;-83
2022/11/06 00:39:37;;;;;;;9.82;3.22;;;0.50;99.90;;;;;;8294238;28;20026;-83
2022/11/06 00:43:38;;;;;;;20.05;3.95;;;0.50;99.90;;;;;;8295157;28;20021;-83
2022/11/06 00:47:49;;;;;;;10.50;3.63;;;0.40;99.90;;;;;;8294059;28;20034;-83
2022/11/06 00:51:53;;;;;;;11.98;3.67;;;0.10;99.90;;;;;;8295370;28;20030;-82
2022/11/06 00:55:54;;;;;;;15.20;4.22;;;0.00;99.90;;;;;;8297143;28;20026;-82
2022/11/06 00:59:55;;;;;;;7.18;3.95;;;0.20;99.90;;;;;;8297494;28;20022;-82
2022/11/06 01:04:16;;;;;;;8.13;3.65;;;0.30;99.90;;;;;;8297408;28;20076;-83
2022/11/06 01:08:17;;;;;;;6.80;4.00;;;0.70;99.90;;;;;;8295600;28;20032;-82
2022/11/06 01:16:21;;;;;;;6.85;3.85;;;0.50;99.90;;;;;;8330384;28;20120;-80
2022/11/06 01:20:22;;;;;;;6.68;4.38;;;0.40;99.90;;;;;;8329820;28;20481;-80
2022/11/06 01:24:25;;;;;;;5.25;3.53;;;0.30;99.90;;;;;;8349173;28;20028;-81
2022/11/06 01:28:27;;;;;;;5.20;3.33;;;0.20;99.90;;;;;;8366625;28;20025;-80
2022/11/06 01:32:27;;;;;;;6.70;3.70;;;0.20;99.90;;;;;;8365819;28;20065;-82
2022/11/06 01:36:29;;;;;;;5.85;3.88;;;0.20;99.90;;;;;;8363687;28;20056;-80
2022/11/06 01:40:29;;;;;;;7.85;3.72;;;0.50;99.90;;;;;;8365995;28;20029;-81
2022/11/06 01:44:42;;;;;;;7.10;4.00;;;0.80;99.90;;;;;;8365555;28;20052;-80
2022/11/06 01:48:52;;;;;;;7.15;4.00;;;0.80;99.90;;;;;;8366008;28;20017;-81
2022/11/06 01:52:54;;;;;;;6.88;3.53;;;0.60;99.90;;;;;;8367458;28;20374;-81
2022/11/06 01:56:59;;;;;;;9.02;4.43;;;0.50;99.90;;;;;;8360226;28;20074;-81
2022/11/06 02:01:00;;;;;;;7.43;4.18;;;0.50;99.90;;;;;;8363726;28;20079;-81
2022/11/06 02:05:00;;;;;;;9.25;4.55;;;0.50;99.90;;;;;;8365315;28;20183;-81
2022/11/06 02:09:02;;;;;;;6.78;3.97;;;0.50;99.90;;;;;;8365559;28;20040;-82
2022/11/06 02:13:11;;;;;;;14.43;3.70;;;0.40;99.90;;;;;;8366428;28;20179;-81
2022/11/06 02:17:22;;;;;;;19.30;4.63;;;0.40;99.90;;;;;;8367778;28;20151;-81
2022/11/06 02:21:51;;;;;;;6.85;4.07;;;0.30;99.90;;;;;;8373212;28;20616;-80
2022/11/06 02:25:57;;;;;;;7.28;3.80;;;0.40;99.90;;;;;;8371827;28;20436;-81
2022/11/06 02:30:08;;;;;;;5.85;3.47;;;0.30;99.90;;;;;;8370262;28;20025;-81
2022/11/06 02:34:15;;;;;;;6.22;3.75;;;0.10;99.90;;;;;;8378581;28;20032;-81
2022/11/06 02:38:39;;;;;;;5.53;3.17;;;0.00;99.90;;;;;;8371688;28;20071;-81
2022/11/06 02:42:44;;;;;;;8.00;3.85;;;-0.10;99.90;;;;;;8367092;28;20017;-81
2022/11/06 02:55:33;;;;;;;11.13;3.58;;;-0.50;99.90;;;;;;8320566;28;20088;-81
2022/11/06 03:00:03;;;;;;;49.17;4.32;;;-0.60;99.90;;;;;;8312906;28;20467;-81
2022/11/06 03:04:10;;;;;;;46.43;3.93;;;-0.30;99.90;;;;;;8305059;28;20033;-81
2022/11/06 03:08:33;;;;;;;70.28;4.53;;;0.00;99.90;;;;;;8317961;28;20754;-81
2022/11/06 03:12:55;;;;;;;53.22;4.13;;;0.20;99.90;;;;;;8313112;28;20028;-81
2022/11/06 03:17:04;;;;;;;26.08;3.55;;;0.20;99.90;;;;;;8312008;28;20401;-81
2022/11/06 03:21:45;;;;;;;53.33;3.73;;;0.10;99.90;;;;;;8319936;28;20117;-80
2022/11/06 03:25:53;;;;;;;28.50;3.00;;;0.20;99.90;;;;;;8312212;28;20033;-81
2022/11/06 03:30:05;;;;;;;49.78;3.60;;;0.10;99.90;;;;;;8327631;28;20038;-81
2022/11/06 03:34:16;;;;;;;34.88;3.45;;;0.00;99.90;;;;;;8310013;28;20112;-81
2022/11/06 03:38:55;;;;;;;13.73;2.67;;;-0.10;99.90;;;;;;8310813;28;20026;-80
2022/11/06 03:42:59;;;;;;;10.02;2.60;;;-0.30;99.90;;;;;;8298068;28;20034;-80
2022/11/06 03:47:11;;;;;;;17.40;2.90;;;-0.10;99.90;;;;;;8308897;28;20501;-80
2022/11/06 03:51:13;;;;;;;5.32;1.98;;;-0.20;99.90;;;;;;8312217;28;20109;-80
2022/11/06 03:55:17;;;;;;;3.65;2.53;;;-0.40;99.90;;;;;;8319999;28;20048;-79
2022/11/06 03:59:22;;;;;;;7.88;2.00;;;-0.30;99.90;;;;;;8312003;28;20030;-81
2022/11/06 04:03:50;;;;;;;14.75;2.90;;;-0.20;99.90;;;;;;8315880;28;20029;-80
2022/11/06 04:16:44;;;;;;;6.50;3.78;;;-0.30;99.90;;;;;;8322433;28;20152;-81
2022/11/06 04:21:21;;;;;;;13.93;4.45;;;-0.20;99.90;;;;;;8323291;28;20021;-81
2022/11/06 04:30:12;;;;;;;7.20;3.35;;;-0.30;99.90;;;;;;8306663;28;20109;-81
2022/11/06 04:34:35;;;;;;;6.22;3.67;;;-0.20;99.90;;;;;;8310269;28;20025;-81
2022/11/06 04:38:48;;;;;;;10.93;3.55;;;-0.10;99.90;;;;;;8279680;28;20054;-81
2022/11/06 04:43:05;;;;;;;13.95;3.65;;;0.00;99.90;;;;;;8306453;28;20412;-82
2022/11/06 04:47:11;;;;;;;8.38;3.58;;;0.00;99.90;;;;;;8313246;28;20029;-81
2022/11/06 04:51:14;;;;;;;11.13;3.67;;;0.00;99.90;;;;;;8307434;28;20429;-82
2022/11/06 04:55:15;;;;;;;11.57;3.38;;;0.10;99.90;;;;;;8301673;28;20030;-82
2022/11/06 04:59:17;;;;;;;6.18;2.90;;;0.30;99.90;;;;;;8324282;28;20044;-81
2022/11/06 05:03:18;;;;;;;6.45;3.15;;;0.40;99.90;;;;;;8308724;28;20033;-81
2022/11/06 05:07:18;;;;;;;4.13;2.88;;;0.30;99.90;;;;;;8311262;28;20038;-81
2022/11/06 05:11:19;;;;;;;7.90;2.95;;;0.00;99.90;;;;;;8317684;28;20033;-81
2022/11/06 05:15:19;;;;;;;10.00;3.38;;;-0.10;99.90;;;;;;8316081;28;20025;-81
2022/11/06 05:19:20;;;;;;;8.88;2.92;;;-0.20;99.90;;;;;;8309086;28;20025;-82
2022/11/06 05:23:20;;;;;;;11.93;3.88;;;0.10;99.90;;;;;;8315507;28;20030;-81
2022/11/06 05:27:21;;;;;;;13.70;4.57;;;0.20;99.90;;;;;;8306336;28;20036;-80
2022/11/06 05:31:22;;;;;;;20.25;4.35;;;0.40;99.90;;;;;;8302422;28;20041;-81
2022/11/06 05:35:23;;;;;;;17.98;4.78;;;0.30;99.90;;;;;;8310272;28;20022;-81
2022/11/06 05:39:23;;;;;;;41.58;5.10;;;0.10;99.90;;;;;;8303450;28;20061;-81
2022/11/06 05:43:24;;;;;;;10.82;4.47;;;0.00;99.90;;;;;;8312588;28;20026;-80
2022/11/06 05:47:24;;;;;;;11.13;3.60;;;-0.20;99.90;;;;;;8302264;28;20034;-81
2022/11/06 05:51:25;;;;;;;20.38;3.67;;;-0.30;99.90;;;;;;8333575;28;20065;-82
2022/11/06 05:55:25;;;;;;;4.90;2.72;;;-0.50;99.90;;;;;;8317105;28;20022;-81
2022/11/06 05:59:26;;;;;;;6.47;3.10;;;-0.60;99.90;;;;;;8324486;28;20033;-82
2022/11/06 06:03:27;;;;;;;5.57;3.22;;;-0.70;99.90;;;;;;8315896;28;20102;-81
2022/11/06 06:07:27;;;;;;;6.43;3.50;;;-0.80;99.90;;;;;;8308548;28;20494;-81
2022/11/06 06:11:28;;;;;;;12.48;3.60;;;-0.80;99.90;;;;;;8322322;28;20079;-81
2022/11/06 06:15:28;;;;;;;20.65;2.97;;;-0.80;99.90;;;;;;8315133;28;20037;-81
2022/11/06 06:19:29;;;;;;;10.00;3.88;;;-0.80;99.90;;;;;;8326515;28;20029;-82
2022/11/06 06:23:29;;;;;;;22.15;4.13;;;-0.80;99.90;;;;;;8306466;28;20107;-82
2022/11/06 06:27:30;;;;;;;25.08;3.80;;;-0.60;99.90;;;;;;8320847;28;20030;-80
2022/11/06 06:31:31;;;;;;;15.15;4.13;;;-0.20;99.90;;;;;;8311191;28;20033;-82
2022/11/06 06:35:32;;;;;;;48.63;3.65;;;-0.20;99.90;;;;;;8312682;28;20025;-82
2022/11/06 06:39:33;;;;;;;12.82;3.22;;;;;;;;;;8303854;28;20397;-81
2022/11/06 06:43:34;;;;;;;16.58;3.67;;;0.00;99.90;;;;;;8311146;28;20029;-81
2022/11/06 06:47:35;;;;;;;16.38;3.30;;;-0.20;99.90;;;;;;8312238;28;20022;-81
2022/11/06 06:51:35;;;;;;;25.52;3.80;;;-0.20;99.90;;;;;;8317847;28;20036;-81
2022/11/06 06:55:36;;;;;;;20.63;3.42;;;-0.20;99.90;;;;;;8320646;28;20025;-82
2022/11/06 06:59:36;;;;;;;12.23;3.22;;;0.00;99.90;;;;;;8316110;28;20031;-82
2022/11/06 07:03:37;;;;;;;18.05;3.40;;;0.20;99.90;;;;;;8305056;28;20022;-81
2022/11/06 07:07:38;;;;;;;38.20;3.58;;;0.50;99.90;;;;;;8326138;28;20030;-80
2022/11/06 07:11:38;;;;;;;47.45;3.78;;;0.60;99.90;;;;;;8316357;28;20032;-81
2022/11/06 07:15:39;;;;;;;45.30;3.72;;;0.70;99.90;;;;;;8309914;28;20048;-81
2022/11/06 07:19:40;;;;;;;27.38;2.80;;;0.60;99.90;;;;;;8304975;28;20025;-80
2022/11/06 07:23:40;;;;;;;45.08;3.28;;;0.70;99.90;;;;;;8315335;28;20571;-80
2022/11/06 07:27:41;;;;;;;49.40;3.20;;;0.50;99.90;;;;;;8292505;28;20056;-80
2022/11/06 07:31:41;;;;;;;12.93;2.80;;;0.50;99.90;;;;;;8296284;28;20022;-81
2022/11/06 07:35:43;;;;;;;12.98;2.75;;;0.80;99.90;;;;;;8301928;28;20025;-81
2022/11/06 07:39:43;;;;;;;22.98;3.10;;;0.70;99.90;;;;;;8292596;28;20026;-82
2022/11/06 07:43:47;;;;;;;86.35;4.75;;;0.60;99.90;;;;;;8285230;28;20399;-80
2022/11/06 07:47:48;;;;;;;39.10;3.58;;;0.70;99.90;;;;;;8291910;28;20095;-81
2022/11/06 07:51:48;;;;;;;40.20;3.03;;;0.90;99.90;;;;;;8297044;28;20366;-82
2022/11/06 07:55:51;;;;;;;20.80;2.47;;;1.00;99.90;;;;;;8298138;28;20497;-82
2022/11/06 07:59:51;;;;;;;19.33;2.88;;;1.10;99.90;;;;;;8292190;28;20578;-81
2022/11/06 08:03:52;;;;;;;8.43;2.28;;;1.00;99.90;;;;;;8312243;28;20026;-80
2022/11/06 08:07:56;;;;;;;10.00;3.10;;;1.30;99.90;;;;;;8310148;28;20021;-81
2022/11/06 08:11:56;;;;;;;28.75;10.68;;;1.50;99.90;;;;;;8300210;28;20030;-80
2022/11/06 08:15:57;;;;;;;44.55;11.63;;;1.70;99.90;;;;;;8302714;28;20080;-81
2022/11/06 08:19:57;;;;;;;62.78;9.90;;;1.70;99.90;;;;;;8314727;28;20033;-81
2022/11/06 08:23:58;;;;;;;49.13;10.45;;;1.90;99.90;;;;;;8297311;28;20076;-81
2022/11/06 08:28:00;;;;;;;12.73;5.47;;;2.20;99.90;;;;;;8292217;28;20079;-80
2022/11/06 08:32:00;;;;;;;6.25;3.95;;;2.60;99.90;;;;;;8304350;28;20458;-81
2022/11/06 08:36:02;;;;;;;28.17;5.00;;;2.80;99.90;;;;;;8306469;28;20021;-82
2022/11/06 08:40:03;;;;;;;12.73;4.43;;;2.90;99.90;;;;;;8313606;28;20034;-83
2022/11/06 08:44:04;;;;;;;10.32;3.88;;;3.10;99.90;;;;;;8317327;28;20508;-82
2022/11/06 08:48:07;;;;;;;5.72;3.25;;;3.40;99.90;;;;;;8317172;28;20100;-82
2022/11/06 08:52:07;;;;;;;5.78;3.30;;;3.50;99.90;;;;;;8294919;28;20516;-81
2022/11/06 08:56:08;;;;;;;5.53;3.65;;;3.50;99.90;;;;;;8315641;28;20034;-81
2022/11/06 09:00:10;;;;;;;3.35;2.20;;;3.50;99.90;;;;;;8332789;28;20042;-81
2022/11/06 09:04:11;;;;;;;4.90;3.20;;;3.60;99.90;;;;;;8335377;22;20041;-84
2022/11/06 09:08:13;;;;;;;6.30;4.18;;;3.70;99.90;;;;;;8353197;28;20033;-85
2022/11/06 09:12:13;;;;;;;6.45;3.97;;;4.20;99.90;;;;;;8348930;28;20029;-85
2022/11/06 09:16:14;;;;;;;6.78;4.32;;;4.90;99.90;;;;;;8361818;28;20036;-84
2022/11/06 09:20:17;;;;;;;3.83;3.03;;;5.40;99.90;;;;;;8346933;28;20029;-84
2022/11/06 09:24:18;;;;;;;5.53;3.92;;;5.90;99.90;;;;;;8348481;28;20116;-85
2022/11/06 09:28:18;;;;;;;5.10;3.80;;;5.90;99.90;;;;;;8345417;28;20543;-85
2022/11/06 09:32:19;;;;;;;7.55;4.15;;;6.10;99.90;;;;;;8359701;28;20100;-84
2022/11/06 09:36:20;;;;;;;5.32;3.85;;;6.30;99.90;;;;;;8346970;28;20090;-85
2022/11/06 09:40:24;;;;;;;5.70;4.10;;;6.40;99.90;;;;;;8354133;28;20079;-85
2022/11/06 09:44:39;;;;;;;8.70;3.85;;;6.70;99.90;;;;;;8353647;28;20520;-86
2022/11/06 09:48:45;;;;;;;6.50;3.75;;;6.90;99.90;;;;;;8349176;28;20021;-85
2022/11/06 09:52:49;;;;;;;5.90;4.05;;;7.10;99.90;;;;;;8354309;28;20079;-85
2022/11/06 09:56:56;;;;;;;5.28;3.70;;;7.50;99.90;;;;;;8344664;28;20025;-85
2022/11/06 10:01:01;;;;;;;4.07;3.40;;;7.80;99.90;;;;;;8343332;28;20027;-85
2022/11/06 10:05:22;;;;;;;4.20;3.05;;;8.10;99.90;;;;;;8346343;28;20047;-85
2022/11/06 10:09:22;;;;;;;;;;;7.50;99.90;;;;;;8329862;28;20026;-85
2022/11/06 10:13:47;;;;;;;5.05;3.25;;;7.30;99.90;;;;;;8345242;28;19916;-85
2022/11/06 10:18:00;;;;;;;3.90;2.92;;;7.50;99.90;;;;;;8342910;28;20051;-85
2022/11/06 10:22:07;;;;;;;4.20;3.10;;;7.90;99.90;;;;;;8339998;28;20029;-85
2022/11/06 10:26:19;;;;;;;3.88;2.70;;;8.60;99.90;;;;;;8340079;28;20032;-85
2022/11/06 10:30:19;;;;;;;3.88;2.55;;;8.40;99.90;;;;;;8349265;28;20029;-85
2022/11/06 10:34:41;;;;;;;5.00;3.45;;;8.10;99.90;;;;;;8340384;28;20032;-85
2022/11/06 10:38:46;;;;;;;4.70;3.45;;;7.70;99.90;;;;;;8335736;28;20049;-87
2022/11/06 10:43:02;;;;;;;5.75;4.13;;;8.30;99.90;;;;;;8338556;28;20040;-86
2022/11/06 10:47:12;;;;;;;5.35;2.75;;;9.50;99.90;;;;;;8356755;28;20028;-85
2022/11/06 10:51:22;;;;;;;;;;;10.20;99.90;;;;;;8361306;28;20381;-84
2022/11/06 10:55:47;;;;;;;2.50;2.00;;;10.20;99.90;;;;;;8352487;28;19990;-85
2022/11/06 10:59:49;;;;;;;4.65;3.30;;;9.70;99.90;;;;;;8339756;28;20039;-85
2022/11/06 11:03:50;;;;;;;5.70;3.53;;;9.50;99.90;;;;;;8357190;28;20107;-85
2022/11/06 11:07:51;;;;;;;3.85;2.80;;;8.40;99.90;;;;;;8356776;28;20044;-85
2022/11/06 11:11:52;;;;;;;6.82;3.08;;;7.80;99.90;;;;;;8364041;28;20546;-85
2022/11/06 11:15:52;;;;;;;4.28;2.83;;;7.70;99.90;;;;;;8344313;28;20025;-85
2022/11/06 11:19:53;;;;;;;5.57;3.33;;;7.30;99.90;;;;;;8351511;28;20546;-85
2022/11/06 11:24:00;;;;;;;4.43;3.20;;;7.10;99.90;;;;;;8348516;28;20043;-85
2022/11/06 11:28:03;;;;;;;3.92;2.75;;;6.90;99.90;;;;;;8339684;28;20028;-85
2022/11/06 11:32:06;;;;;;;5.53;3.75;;;6.80;99.90;;;;;;8336021;28;20034;-85
2022/11/06 11:36:09;;;;;;;1.67;1.08;;;6.80;99.90;;;;;;8335742;28;20029;-85
2022/11/06 11:40:35;;;;;;;6.18;4.15;;;6.70;99.90;;;;;;8342117;28;20119;-86
2022/11/06 11:44:35;;;;;;;5.80;4.20;;;6.70;99.90;;;;;;8346242;28;20025;-85
2022/11/06 11:48:56;;;;;;;6.07;4.05;;;6.90;99.90;;;;;;8338425;28;20029;-85
2022/11/06 11:53:10;;;;;;;6.38;4.13;;;7.00;99.90;;;;;;8348475;28;20032;-85
2022/11/06 11:57:23;;;;;;;5.82;3.70;;;6.80;99.90;;;;;;8346751;28;20416;-85
2022/11/06 12:01:40;;;;;;;4.78;3.55;;;7.00;99.90;;;;;;8348218;28;20029;-85
2022/11/06 12:05:40;;;;;;;7.90;4.30;;;7.00;99.90;;;;;;8331710;28;20105;-86
2022/11/06 12:09:43;;;;;;;7.97;4.72;;;7.20;99.90;;;;;;8332842;28;21656;-85
2022/11/06 12:13:43;;;;;;;7.55;4.68;;;7.50;99.90;;;;;;8335386;28;20032;-85
2022/11/06 12:18:02;;;;;;;6.28;4.20;;;8.00;99.90;;;;;;8334437;28;20037;-86
2022/11/06 12:22:20;;;;;;;6.22;4.20;;;8.20;99.90;;;;;;8333980;28;20061;-86
2022/11/06 12:26:38;;;;;;;5.63;3.97;;;8.50;99.90;;;;;;8336980;28;20441;-86
2022/11/06 12:30:41;;;;;;;6.25;4.13;;;8.90;99.90;;;;;;8331065;28;20026;-86
2022/11/06 12:35:16;;;;;;;6.05;4.22;;;9.10;99.90;;;;;;8330829;28;20086;-86
2022/11/06 12:52:03;;;;;;;;;;;9.20;99.90;;;;;;8528742;22;20057;-92
2022/11/06 12:56:23;;;;;;;7.30;4.82;;;9.90;99.90;;;;;;8344396;28;19901;-93
2022/11/06 13:00:33;;;;;;;5.30;4.00;;;10.20;99.90;;;;;;8341092;28;20032;-93
2022/11/06 13:04:57;;;;;;;5.85;3.95;;;9.90;99.90;;;;;;8340061;28;20424;-93
2022/11/06 13:13:13;;;;;;;4.70;3.53;;;10.10;99.90;;;;;;8224728;28;20047;-83
2022/11/06 13:17:32;;;;;;;6.07;4.20;;;9.80;99.90;;;;;;8230431;28;20023;-81
2022/11/06 13:21:56;;;;;;;6.35;4.32;;;9.30;99.90;;;;;;8254305;28;20038;-82
2022/11/06 13:26:32;;;;;;;5.60;4.35;;;9.10;99.90;;;;;;8266831;28;20030;-82
2022/11/06 13:30:37;;;;;;;7.05;4.93;;;9.20;99.90;;;;;;8259625;28;20486;-83
2022/11/06 13:34:39;;;;;;;5.88;4.63;;;9.70;99.90;;;;;;8253691;28;20089;-82
2022/11/06 13:38:47;;;;;;;6.18;4.53;;;9.80;99.90;;;;;;8242657;28;20057;-82
2022/11/06 13:42:58;;;;;;;6.40;4.53;;;9.60;99.90;;;;;;8263778;28;20037;-81
2022/11/06 13:47:05;;;;;;;6.47;4.18;;;9.30;99.90;;;;;;8265451;28;20053;-81
2022/11/06 13:51:32;;;;;;;7.05;5.00;;;8.80;99.90;;;;;;8260086;28;20479;-81
2022/11/06 13:55:35;;;;;;;6.25;4.55;;;8.70;99.90;;;;;;8255342;28;20041;-81
2022/11/06 14:00:01;;;;;;;7.22;4.88;;;8.70;99.90;;;;;;8269670;28;20026;-81
2022/11/06 14:04:43;;;;;;;6.47;4.60;;;8.80;99.90;;;;;;8260586;28;20049;-81
2022/11/06 14:08:49;;;;;;;5.85;4.30;;;8.70;99.90;;;;;;8259407;28;20030;-81
2022/11/06 14:12:50;;;;;;;6.45;4.57;;;8.80;99.90;;;;;;8265228;28;20069;-81
2022/11/06 14:17:12;;;;;;;6.55;4.40;;;8.80;99.90;;;;;;8268021;28;20026;-81
2022/11/06 14:21:25;;;;;;;7.13;5.53;;;8.60;99.90;;;;;;8274965;28;20030;-82
2022/11/06 14:25:28;;;;;;;8.95;6.13;;;8.20;99.90;;;;;;8272784;28;20077;-81
2022/11/06 14:29:29;;;;;;;7.60;4.95;;;8.10;99.90;;;;;;8262779;28;20023;-81
2022/11/06 14:33:50;;;;;;;8.60;5.45;;;7.90;99.90;;;;;;8264134;28;20030;-81
2022/11/06 14:37:50;;;;;;;7.80;5.25;;;7.90;99.90;;;;;;8266317;28;20014;-81
2022/11/06 14:41:53;;;;;;;7.57;5.43;;;7.80;99.90;;;;;;8266841;28;20038;-82
2022/11/06 14:46:15;;;;;;;11.60;6.35;;;7.80;99.90;;;;;;8275983;28;20030;-81
2022/11/06 14:50:18;;;;;;;6.70;5.53;;;7.90;99.90;;;;;;8267951;28;20471;-81
2022/11/06 14:54:23;;;;;;;8.90;5.43;;;7.80;99.90;;;;;;8270268;28;20022;-81
2022/11/06 14:58:31;;;;;;;8.60;5.40;;;7.60;99.90;;;;;;8275867;28;20037;-81
2022/11/06 15:02:34;;;;;;;8.63;5.93;;;7.50;99.90;;;;;;8267343;28;20057;-80
2022/11/06 15:06:42;;;;;;;12.10;6.72;;;7.60;99.90;;;;;;8272291;28;20053;-81
2022/11/06 15:10:43;;;;;;;9.98;7.10;;;7.40;99.90;;;;;;8266100;28;20286;-81
2022/11/06 15:14:52;;;;;;;13.07;7.55;;;7.20;99.90;;;;;;8277748;28;20117;-81
2022/11/06 15:18:53;;;;;;;12.10;6.85;;;7.00;99.90;;;;;;8263520;28;20026;-81
2022/11/06 15:23:03;;;;;;;7.88;5.80;;;7.00;99.90;;;;;;8263359;28;20058;-81
2022/11/06 15:27:27;;;;;;;9.30;6.38;;;7.10;99.90;;;;;;8270075;28;20842;-82
2022/11/06 15:31:29;;;;;;;10.52;6.85;;;7.00;99.90;;;;;;8272938;28;20038;-81
2022/11/06 15:35:33;;;;;;;9.90;6.85;;;7.00;99.90;;;;;;8251765;28;20050;-81
2022/11/06 15:39:40;;;;;;;10.85;6.43;;;6.80;99.90;;;;;;8256362;28;20403;-81
2022/11/06 15:43:43;;;;;;;10.38;6.75;;;6.80;99.90;;;;;;8258523;28;20131;-82
2022/11/06 15:47:54;;;;;;;10.25;6.05;;;6.70;99.90;;;;;;8247664;28;20013;-81
2022/11/06 15:52:00;;;;;;;10.00;6.43;;;6.60;99.90;;;;;;8257924;28;21022;-82
2022/11/06 15:56:05;;;;;;;8.88;6.13;;;6.60;99.90;;;;;;8253248;28;20026;-82
2022/11/06 16:00:15;;;;;;;10.98;5.97;;;6.60;99.90;;;;;;8259834;28;20026;-81
2022/11/06 16:04:20;;;;;;;9.55;6.90;;;6.60;99.90;;;;;;8264252;28;20516;-81
2022/11/06 16:08:23;;;;;;;8.77;6.65;;;6.60;99.90;;;;;;8277496;28;20030;-81
2022/11/06 16:12:25;;;;;;;10.07;5.85;;;6.60;99.90;;;;;;8270806;28;20038;-80
2022/11/06 16:16:39;;;;;;;9.68;6.40;;;6.70;99.90;;;;;;8279500;28;20022;-80
2022/11/06 16:20:45;;;;;;;10.95;7.10;;;6.60;99.90;;;;;;8256191;28;20502;-81
2022/11/06 16:24:51;;;;;;;12.80;7.80;;;6.50;99.90;;;;;;8278223;28;20117;-81
2022/11/06 16:28:54;;;;;;;13.77;7.35;;;6.50;99.90;;;;;;8273810;28;20096;-80
2022/11/06 16:32:55;;;;;;;9.85;6.75;;;6.40;99.90;;;;;;8267574;28;20113;-81
2022/11/06 16:37:02;;;;;;;11.10;7.57;;;6.60;99.90;;;;;;8259713;28;20073;-81
2022/11/06 16:41:04;;;;;;;12.63;7.50;;;6.40;99.90;;;;;;8267862;28;20030;-80
2022/11/06 16:45:18;;;;;;;10.80;6.80;;;6.50;99.90;;;;;;8264442;28;20033;-80
2022/11/06 16:49:39;;;;;;;11.75;7.20;;;6.50;99.90;;;;;;8271387;28;20026;-80
2022/11/06 16:53:53;;;;;;;10.50;7.32;;;6.20;99.90;;;;;;8277826;28;20026;-80
2022/11/06 16:58:00;;;;;;;9.27;6.10;;;6.00;99.90;;;;;;8283506;28;20018;-80
2022/11/06 17:02:00;;;;;;;10.85;7.13;;;5.60;99.90;;;;;;8259768;28;20580;-81
2022/11/06 17:06:01;;;;;;;10.18;6.78;;;5.50;99.90;;;;;;8271312;28;20032;-80
2022/11/06 17:10:33;;;;;;;12.38;7.72;;;5.30;99.90;;;;;;8263104;28;20037;-81
2022/11/06 17:14:33;;;;;;;12.98;7.85;;;5.40;99.90;;;;;;8277808;28;20034;-80
2022/11/06 17:18:36;;;;;;;11.60;7.18;;;5.30;99.90;;;;;;8261163;28;20478;-81
2022/11/06 17:22:37;;;;;;;13.48;7.82;;;5.30;99.90;;;;;;8289846;28;20069;-81
2022/11/06 17:26:48;;;;;;;24.13;14.23;;;5.20;99.90;;;;;;8266788;28;20422;-80
2022/11/06 17:30:49;;;;;;;25.65;14.07;;;5.30;99.90;;;;;;8259569;28;20033;-81
2022/11/06 17:34:49;;;;;;;13.55;8.60;;;5.30;99.90;;;;;;8258903;28;20065;-80
2022/11/06 17:38:51;;;;;;;16.00;10.30;;;5.30;99.90;;;;;;8259126;28;20030;-80
2022/11/06 17:42:51;;;;;;;14.60;8.95;;;5.30;99.90;;;;;;8258516;28;20061;-79
2022/11/06 17:46:52;;;;;;;14.80;9.48;;;5.40;99.90;;;;;;8261601;28;20022;-80
2022/11/06 17:55:13;;;;;;;15.80;8.85;;;5.40;99.90;;;;;;8269529;28;20437;-80
2022/11/06 17:59:13;;;;;;;15.48;10.27;;;5.40;99.90;;;;;;8272697;28;20042;-80
2022/11/06 18:03:21;;;;;;;17.08;10.55;;;5.40;99.90;;;;;;8275560;28;20030;-82
2022/11/06 18:07:21;;;;;;;23.30;13.68;;;5.50;99.90;;;;;;8264682;28;20034;-80
2022/11/06 18:11:23;;;;;;;20.27;12.40;;;5.50;99.90;;;;;;8294104;28;20068;-81
2022/11/06 18:15:23;;;;;;;24.13;14.57;;;5.70;99.90;;;;;;8271448;28;20030;-80
2022/11/06 18:19:25;;;;;;;77.93;44.75;;;5.90;99.90;;;;;;8279134;28;20170;-80
2022/11/06 18:23:26;;;;;;;12.50;7.72;;;5.90;99.90;;;;;;8285523;28;20464;-80
2022/11/06 18:27:27;;;;;;;12.68;6.05;;;5.90;99.90;;;;;;8275540;28;20022;-80
2022/11/06 18:31:27;;;;;;;9.32;5.65;;;6.10;99.90;;;;;;8263490;28;20026;-80
2022/11/06 18:35:28;;;;;;;8.40;5.53;;;6.20;99.90;;;;;;8267783;28;20372;-81
2022/11/06 18:39:29;;;;;;;8.45;5.78;;;6.40;99.90;;;;;;8281061;28;20490;-80
2022/11/06 18:43:29;;;;;;;9.15;5.63;;;6.70;99.90;;;;;;8280404;28;20414;-81
2022/11/06 18:47:30;;;;;;;9.90;6.63;;;6.80;99.90;;;;;;8270712;28;20026;-81
2022/11/06 18:51:31;;;;;;;10.23;5.68;;;6.80;99.90;;;;;;8264192;28;20058;-81
2022/11/06 18:55:32;;;;;;;9.00;5.75;;;7.00;99.90;;;;;;8283645;28;20033;-80
2022/11/06 18:59:32;;;;;;;8.70;5.80;;;6.90;99.90;;;;;;8266468;28;20040;-80
2022/11/06 19:03:34;;;;;;;6.97;5.07;;;6.90;99.90;;;;;;8264484;28;20050;-80
2022/11/06 19:07:35;;;;;;;8.63;5.53;;;6.90;99.90;;;;;;8271432;28;20031;-80
2022/11/06 19:11:35;;;;;;;9.38;5.60;;;7.00;99.90;;;;;;8275734;28;20092;-80
2022/11/06 19:15:36;;;;;;;8.95;5.80;;;6.90;99.90;;;;;;8270253;28;20498;-80
2022/11/06 19:19:37;;;;;;;9.32;5.50;;;6.90;99.90;;;;;;8260662;28;20058;-80
2022/11/06 19:23:40;;;;;;;10.98;5.82;;;7.00;99.90;;;;;;8263408;28;20034;-81
2022/11/06 19:27:41;;;;;;;8.77;5.95;;;6.90;99.90;;;;;;8258612;28;20058;-81
2022/11/06 19:31:41;;;;;;;7.65;5.63;;;7.00;99.90;;;;;;8271587;28;20529;-82
2022/11/06 19:35:42;;;;;;;8.25;5.30;;;7.10;99.90;;;;;;8258595;28;20084;-80
2022/11/06 19:39:42;;;;;;;10.52;5.57;;;7.10;99.90;;;;;;8277494;28;20695;-80
2022/11/06 19:43:43;;;;;;;8.88;4.88;;;7.40;99.90;;;;;;8283921;28;20019;-80
2022/11/06 19:47:43;;;;;;;8.23;5.00;;;7.30;99.90;;;;;;8279907;28;20022;-80
2022/11/06 19:51:44;;;;;;;6.82;4.75;;;7.40;99.90;;;;;;8279837;28;20125;-81
2022/11/06 19:55:45;;;;;;;6.63;3.00;;;7.40;99.90;;;;;;8263433;28;20386;-81
2022/11/06 19:59:46;;;;;;;7.28;5.22;;;7.70;99.90;;;;;;8271772;28;20015;-81
2022/11/06 20:03:47;;;;;;;6.35;4.20;;;7.70;99.90;;;;;;8261205;28;20114;-82
2022/11/06 20:07:49;;;;;;;7.63;4.68;;;7.70;99.90;;;;;;8263449;28;20022;-81
2022/11/06 20:11:51;;;;;;;5.78;4.10;;;7.70;99.90;;;;;;8262497;28;20515;-81
2022/11/06 20:15:56;;;;;;;6.70;3.58;;;7.90;99.90;;;;;;8265151;28;20096;-80
2022/11/06 20:19:56;;;;;;;6.43;3.63;;;7.90;99.90;;;;;;8275647;28;20034;-80
2022/11/06 20:23:57;;;;;;;5.60;3.58;;;8.00;99.90;;;;;;8264819;28;20081;-80
2022/11/06 20:27:57;;;;;;;8.25;3.75;;;8.20;99.90;;;;;;8261541;28;20414;-81
2022/11/06 20:31:58;;;;;;;6.32;3.67;;;8.20;99.90;;;;;;8263902;28;20034;-80
2022/11/06 20:36:07;;;;;;;4.38;3.10;;;8.30;99.90;;;;;;8272463;28;20060;-80
2022/11/06 20:40:08;;;;;;;3.63;2.28;;;8.30;99.90;;;;;;8265111;28;20030;-82
2022/11/06 20:44:08;;;;;;;3.92;2.78;;;8.30;99.90;;;;;;8273243;28;20034;-81
2022/11/06 20:48:09;;;;;;;3.42;2.92;;;8.40;99.90;;;;;;8261553;28;20153;-81
2022/11/06 20:52:09;;;;;;;5.53;2.97;;;8.40;99.90;;;;;;8263014;28;20911;-80
2022/11/06 20:56:13;;;;;;;6.63;3.25;;;8.50;99.90;;;;;;8267792;28;20033;-79
2022/11/06 21:00:14;;;;;;;5.93;3.03;;;8.40;99.90;;;;;;8261719;28;20061;-80
2022/11/06 21:04:32;;;;;;;3.97;3.00;;;8.60;99.90;;;;;;8339889;23;20048;-83
2022/11/06 21:08:34;;;;;;;4.20;3.05;;;8.40;99.90;;;;;;8315640;28;20091;-84
2022/11/06 21:12:34;;;;;;;4.95;2.67;;;8.50;99.90;;;;;;8316511;28;20116;-84
2022/11/06 21:16:36;;;;;;;3.95;2.70;;;8.30;99.90;;;;;;8320176;28;20034;-84
2022/11/06 21:20:37;;;;;;;4.78;2.75;;;8.50;99.90;;;;;;8327142;28;20021;-85
2022/11/06 21:24:38;;;;;;;4.43;2.70;;;8.60;99.90;;;;;;8311921;28;20022;-86
2022/11/06 21:28:49;;;;;;;3.25;2.70;;;8.70;99.90;;;;;;8300790;28;20026;-86
2022/11/06 21:32:52;;;;;;;5.93;2.60;;;8.60;99.90;;;;;;8311601;28;20053;-85
2022/11/06 21:37:14;;;;;;;4.70;3.00;;;8.60;99.90;;;;;;8315766;28;20018;-86
2022/11/06 21:41:17;;;;;;;5.05;3.30;;;8.60;99.90;;;;;;8315844;28;20060;-85
2022/11/06 21:45:17;;;;;;;4.25;2.78;;;8.70;99.90;;;;;;8306150;28;20061;-85
2022/11/06 21:49:18;;;;;;;5.53;3.40;;;8.60;99.90;;;;;;8318251;28;20025;-86
2022/11/06 21:57:37;;;;;;;4.97;3.10;;;8.60;99.90;;;;;;8318176;28;20140;-85
2022/11/06 22:01:39;;;;;;;4.45;2.80;;;8.60;99.90;;;;;;8315588;28;20025;-84
2022/11/06 22:05:40;;;;;;;4.55;3.15;;;8.50;99.90;;;;;;8322066;28;20519;-85
2022/11/06 22:09:40;;;;;;;5.25;3.50;;;8.50;99.90;;;;;;8305262;28;20113;-85
2022/11/06 22:13:42;;;;;;;4.68;3.00;;;8.60;99.90;;;;;;8330926;22;20056;-84
2022/11/06 22:17:43;;;;;;;3.03;2.50;;;8.60;99.90;;;;;;8324424;28;20032;-85
2022/11/06 22:21:43;;;;;;;4.35;2.88;;;8.70;99.90;;;;;;8315361;28;20379;-85
2022/11/06 22:25:44;;;;;;;4.32;2.38;;;8.70;99.90;;;;;;8311012;28;20020;-85
2022/11/06 22:29:44;;;;;;;3.88;2.58;;;8.50;99.90;;;;;;8315303;28;20485;-85